createdAt,value
2019-03-10T00:00:33.972Z,3.90
2019-03-10T00:03:02.428Z,3.90
2019-03-10T00:05:30.892Z,3.90
2019-03-10T00:08:00.133Z,3.90
2019-03-10T00:10:28.575Z,3.90
2019-03-10T00:12:57.044Z,3.90
2019-03-10T00:15:25.672Z,3.80
2019-03-10T00:17:54.191Z,3.80
2019-03-10T00:20:22.749Z,3.80
2019-03-10T00:22:51.175Z,3.80
2019-03-10T00:25:19.644Z,3.80
2019-03-10T00:27:48.139Z,3.80
2019-03-10T00:30:17.684Z,3.90
2019-03-10T00:32:46.555Z,3.90
2019-03-10T00:35:15.010Z,3.80
2019-03-10T00:37:43.559Z,3.90
2019-03-10T00:40:45.906Z,3.90
2019-03-10T00:43:50.864Z,3.80
2019-03-10T00:46:42.305Z,3.80
2019-03-10T00:49:25.975Z,3.70
2019-03-10T00:52:09.727Z,3.70
2019-03-10T00:54:38.236Z,3.60
2019-03-10T00:57:06.799Z,3.50
2019-03-10T00:59:35.398Z,3.50
2019-03-10T01:02:03.951Z,3.50
2019-03-10T01:04:32.514Z,3.50
2019-03-10T01:07:01.811Z,3.50
2019-03-10T01:09:30.439Z,3.50
2019-03-10T01:11:58.831Z,3.50
2019-03-10T01:14:27.305Z,3.50
2019-03-10T01:16:55.813Z,3.40
2019-03-10T01:19:24.457Z,3.40
2019-03-10T01:21:53.319Z,3.40
2019-03-10T01:24:21.855Z,3.40
2019-03-10T01:26:50.327Z,3.40
2019-03-10T01:29:18.871Z,3.40
2019-03-10T01:31:59.362Z,3.40
2019-03-10T01:34:58.868Z,3.30
2019-03-10T01:37:27.333Z,3.30
2019-03-10T01:39:55.958Z,3.30
2019-03-10T01:42:24.462Z,3.40
2019-03-10T01:44:53.072Z,3.40
2019-03-10T01:47:21.527Z,3.40
2019-03-10T01:49:50.275Z,3.40
2019-03-10T01:52:18.743Z,3.50
2019-03-10T01:54:47.133Z,3.50
2019-03-10T01:57:15.618Z,3.50
2019-03-10T01:59:44.091Z,3.50
2019-03-10T02:02:12.543Z,3.50
2019-03-10T02:04:41.072Z,3.50
2019-03-10T02:07:09.539Z,3.40
2019-03-10T02:09:37.940Z,3.40
2019-03-10T02:12:06.512Z,3.40
2019-03-10T02:14:35.221Z,3.30
2019-03-10T02:17:03.647Z,3.30
2019-03-10T02:19:32.399Z,3.30
2019-03-10T02:22:00.870Z,3.30
2019-03-10T02:24:29.330Z,3.30
2019-03-10T02:26:57.931Z,3.30
2019-03-10T02:29:26.393Z,3.30
2019-03-10T02:31:54.877Z,3.30
2019-03-10T02:34:23.339Z,3.30
2019-03-10T02:36:51.730Z,3.20
2019-03-10T02:39:20.223Z,3.10
2019-03-10T02:41:48.733Z,3.10
2019-03-10T02:44:17.208Z,3.10
2019-03-10T02:46:45.638Z,3.10
2019-03-10T02:49:14.095Z,3.20
2019-03-10T02:51:42.569Z,3.20
2019-03-10T02:54:10.979Z,3.20
2019-03-10T02:56:39.606Z,3.20
2019-03-10T02:59:08.117Z,3.30
2019-03-10T03:01:36.621Z,3.30
2019-03-10T03:04:05.024Z,3.30
2019-03-10T03:06:33.512Z,3.30
2019-03-10T03:09:02.057Z,3.20
2019-03-10T03:11:30.587Z,3.20
2019-03-10T03:13:59.009Z,3.20
2019-03-10T03:16:27.539Z,3.20
2019-03-10T03:18:55.929Z,3.20
2019-03-10T03:21:24.353Z,3.10
2019-03-10T03:23:52.790Z,3.10
2019-03-10T03:26:21.184Z,3.10
2019-03-10T03:28:49.764Z,3.10
2019-03-10T03:31:18.321Z,3.10
2019-03-10T03:33:46.715Z,3.10
2019-03-10T03:36:27.190Z,3.10
2019-03-10T03:39:07.670Z,3.20
2019-03-10T03:41:36.237Z,3.10
2019-03-10T03:44:04.704Z,3.10
2019-03-10T03:46:33.137Z,3.10
2019-03-10T03:49:01.633Z,3.00
2019-03-10T03:51:30.110Z,3.00
2019-03-10T03:53:58.597Z,2.90
2019-03-10T03:56:27.188Z,2.80
2019-03-10T03:58:55.679Z,2.80
2019-03-10T04:01:25.723Z,2.80
2019-03-10T04:03:54.160Z,2.80
2019-03-10T04:06:22.652Z,2.70
2019-03-10T04:08:51.127Z,2.70
2019-03-10T04:11:19.602Z,2.70
2019-03-10T04:13:48.070Z,2.60
2019-03-10T04:16:16.471Z,2.40
2019-03-10T04:18:44.970Z,2.40
2019-03-10T04:21:13.504Z,2.30
2019-03-10T04:23:42.014Z,2.30
2019-03-10T04:26:10.527Z,2.20
2019-03-10T04:28:38.922Z,2.20
2019-03-10T04:31:07.339Z,2.20
2019-03-10T04:33:35.777Z,2.20
2019-03-10T04:36:04.154Z,2.20
2019-03-10T04:38:32.673Z,2.20
2019-03-10T04:41:01.152Z,2.20
2019-03-10T04:43:29.684Z,2.20
2019-03-10T04:45:58.101Z,2.20
2019-03-10T04:48:26.493Z,2.20
2019-03-10T04:50:54.948Z,2.20
2019-03-10T04:53:23.425Z,2.20
2019-03-10T04:55:53.462Z,2.30
2019-03-10T04:58:23.630Z,2.30
2019-03-10T05:00:53.684Z,2.30
2019-03-10T05:03:22.230Z,2.30
2019-03-10T05:05:50.719Z,2.40
2019-03-10T05:08:19.180Z,2.40
2019-03-10T05:10:47.653Z,2.40
2019-03-10T05:13:16.079Z,2.50
2019-03-10T05:15:44.545Z,2.50
2019-03-10T05:18:13.011Z,2.50
2019-03-10T05:20:41.431Z,2.60
2019-03-10T05:23:32.698Z,2.60
2019-03-10T05:26:01.211Z,2.50
2019-03-10T05:28:31.530Z,2.50
2019-03-10T05:30:59.992Z,2.50
2019-03-10T05:33:28.446Z,2.60
2019-03-10T05:35:56.877Z,2.50
2019-03-10T05:38:25.292Z,2.40
2019-03-10T05:40:53.759Z,2.40
2019-03-10T05:43:22.287Z,2.40
2019-03-10T05:45:50.852Z,2.50
2019-03-10T05:48:19.324Z,2.50
2019-03-10T05:50:47.743Z,2.60
2019-03-10T05:53:16.484Z,2.60
2019-03-10T05:55:45.101Z,2.70
2019-03-10T05:58:13.523Z,2.80
2019-03-10T06:00:43.191Z,2.70
2019-03-10T06:03:11.811Z,2.70
2019-03-10T06:05:40.373Z,2.60
2019-03-10T06:08:08.791Z,2.60
2019-03-10T06:10:37.286Z,2.70
2019-03-10T06:13:05.690Z,2.70
2019-03-10T06:15:34.124Z,2.80
2019-03-10T06:18:12.769Z,2.90
2019-03-10T06:20:32.676Z,2.90
2019-03-10T06:23:01.118Z,2.90
2019-03-10T06:25:29.507Z,3.00
2019-03-10T06:27:57.893Z,3.00
2019-03-10T06:30:26.375Z,3.10
2019-03-10T06:32:54.896Z,3.10
2019-03-10T06:35:23.305Z,3.20
2019-03-10T06:37:51.813Z,3.20
2019-03-10T06:40:20.210Z,3.20
2019-03-10T06:42:48.733Z,3.30
2019-03-10T06:45:17.233Z,3.30
2019-03-10T06:47:45.707Z,3.30
2019-03-10T06:50:14.171Z,3.30
2019-03-10T06:52:42.664Z,3.40
2019-03-10T06:55:11.108Z,3.40
2019-03-10T06:57:39.491Z,3.40
2019-03-10T07:00:13.068Z,3.40
2019-03-10T07:02:41.531Z,3.40
2019-03-10T07:05:13.283Z,3.50
2019-03-10T07:07:41.740Z,3.50
2019-03-10T07:10:12.841Z,3.60
2019-03-10T07:12:41.333Z,3.60
2019-03-10T07:15:12.100Z,3.70
2019-03-10T07:17:40.653Z,3.70
2019-03-10T07:20:17.459Z,3.70
2019-03-10T07:22:45.927Z,3.70
2019-03-10T07:25:14.463Z,3.80
2019-03-10T07:27:50.384Z,3.80
2019-03-10T07:30:36.403Z,3.80
2019-03-10T07:33:22.702Z,3.90
2019-03-10T07:35:52.911Z,3.90
2019-03-10T07:38:28.800Z,3.90
2019-03-10T07:41:15.384Z,3.90
2019-03-10T07:43:48.409Z,4.00
2019-03-10T07:46:30.391Z,4.00
2019-03-10T07:49:00.441Z,4.10
2019-03-10T07:51:33.564Z,4.20
2019-03-10T07:54:18.721Z,4.20
2019-03-10T07:56:51.528Z,4.20
2019-03-10T07:59:24.323Z,4.30
2019-03-10T08:01:54.498Z,4.40
2019-03-10T08:04:33.920Z,4.40
2019-03-10T08:07:12.887Z,4.40
2019-03-10T08:09:51.882Z,4.40
2019-03-10T08:12:24.371Z,4.50
2019-03-10T08:15:10.697Z,4.50
2019-03-10T08:17:43.466Z,4.60
2019-03-10T08:20:13.512Z,4.70
2019-03-10T08:22:43.573Z,4.70
2019-03-10T08:25:16.655Z,4.80
2019-03-10T08:28:02.198Z,4.80
2019-03-10T08:30:34.909Z,4.80
2019-03-10T08:33:21.120Z,4.90
2019-03-10T08:35:51.164Z,5.00
2019-03-10T08:38:37.630Z,5.00
2019-03-10T08:41:24.121Z,5.10
2019-03-10T08:43:56.775Z,5.10
2019-03-10T08:46:42.072Z,5.10
2019-03-10T08:49:27.180Z,5.10
2019-03-10T08:52:06.283Z,5.10
2019-03-10T08:54:36.375Z,5.10
2019-03-10T08:57:23.019Z,5.10
2019-03-10T08:59:58.840Z,5.20
2019-03-10T09:02:28.948Z,5.20
2019-03-10T09:04:58.984Z,5.20
2019-03-10T09:07:41.265Z,5.20
2019-03-10T09:10:11.986Z,5.30
2019-03-10T09:12:44.929Z,5.30
2019-03-10T09:15:14.972Z,5.30
2019-03-10T09:18:01.514Z,5.30
2019-03-10T09:20:31.698Z,5.30
2019-03-10T09:23:20.388Z,5.40
2019-03-10T09:26:02.467Z,5.40
2019-03-10T09:28:44.430Z,5.30
2019-03-10T09:31:20.286Z,5.30
2019-03-10T09:33:55.872Z,5.30
2019-03-10T09:36:31.741Z,5.30
2019-03-10T09:39:04.573Z,5.30
2019-03-10T09:41:34.703Z,5.20
2019-03-10T09:44:07.809Z,5.20
2019-03-10T09:46:40.496Z,5.20
2019-03-10T09:49:22.697Z,5.20
2019-03-10T09:52:11.179Z,5.20
2019-03-10T09:54:41.310Z,5.20
2019-03-10T09:57:11.338Z,5.20
2019-03-10T09:59:44.310Z,5.20
2019-03-10T10:02:29.632Z,5.20
2019-03-10T10:05:17.537Z,5.20
2019-03-10T10:07:47.595Z,5.20
2019-03-10T10:10:33.875Z,5.20
2019-03-10T10:13:19.092Z,5.20
2019-03-10T10:16:01.355Z,5.20
2019-03-10T10:18:31.543Z,5.20
2019-03-10T10:21:04.376Z,5.20
2019-03-10T10:23:40.233Z,5.30
2019-03-10T10:26:12.936Z,5.40
2019-03-10T10:28:42.973Z,5.40
2019-03-10T10:31:14.002Z,5.50
2019-03-10T10:33:50.232Z,5.50
2019-03-10T10:36:26.155Z,5.60
2019-03-10T10:39:08.298Z,5.70
2019-03-10T10:41:41.205Z,5.80
2019-03-10T10:44:11.354Z,5.80
2019-03-10T10:46:41.471Z,5.80
2019-03-10T10:49:27.911Z,5.80
2019-03-10T10:52:00.541Z,5.80
2019-03-10T10:54:42.490Z,5.90
2019-03-10T10:57:12.527Z,5.90
2019-03-10T10:59:42.606Z,5.90
2019-03-10T11:02:29.309Z,5.90
2019-03-10T11:04:59.493Z,6.00
2019-03-10T11:07:32.173Z,6.10
2019-03-10T11:10:05.323Z,6.10
2019-03-10T11:12:38.329Z,6.20
2019-03-10T11:15:29.109Z,6.30
2019-03-10T11:18:08.845Z,6.40
2019-03-10T11:20:46.030Z,6.40
2019-03-10T11:23:16.166Z,6.40
2019-03-10T11:26:01.249Z,6.30
2019-03-10T11:28:40.308Z,6.30
2019-03-10T11:31:25.769Z,6.10
2019-03-10T11:33:55.887Z,6.00
2019-03-10T11:36:25.919Z,5.80
2019-03-10T11:39:08.048Z,5.80
2019-03-10T11:41:38.114Z,5.70
2019-03-10T11:44:08.150Z,5.60
2019-03-10T11:46:38.385Z,5.60
2019-03-10T11:49:08.420Z,5.60
2019-03-10T11:51:55.187Z,5.60
2019-03-10T11:54:37.454Z,5.60
2019-03-10T11:57:07.536Z,5.60
2019-03-10T11:59:49.567Z,5.70
2019-03-10T12:02:19.624Z,5.70
2019-03-10T12:04:55.237Z,5.80
2019-03-10T12:07:28.018Z,5.80
2019-03-10T12:09:56.459Z,5.90
2019-03-10T12:12:24.925Z,6.00
2019-03-10T12:14:53.416Z,6.00
2019-03-10T12:17:21.910Z,6.10
2019-03-10T12:19:50.295Z,6.10
2019-03-10T12:22:18.931Z,6.20
2019-03-10T12:24:47.358Z,6.20
2019-03-10T12:27:15.840Z,6.20
2019-03-10T12:29:44.424Z,6.30
2019-03-10T12:32:13.052Z,6.30
2019-03-10T12:34:41.655Z,6.30
2019-03-10T12:37:10.123Z,6.20
2019-03-10T12:39:38.626Z,6.20
2019-03-10T12:42:07.111Z,6.20
2019-03-10T12:44:35.745Z,6.10
2019-03-10T12:47:04.283Z,6.10
2019-03-10T12:49:32.716Z,6.00
2019-03-10T12:52:01.246Z,6.00
2019-03-10T12:54:29.640Z,6.00
2019-03-10T12:56:58.157Z,6.00
2019-03-10T12:59:26.622Z,6.00
2019-03-10T13:01:55.211Z,6.00
2019-03-10T13:04:23.773Z,6.00
2019-03-10T13:06:52.252Z,6.00
2019-03-10T13:09:20.742Z,5.90
2019-03-10T13:11:49.343Z,5.90
2019-03-10T13:14:19.225Z,5.90
2019-03-10T13:16:47.699Z,6.00
2019-03-10T13:19:16.278Z,6.00
2019-03-10T13:21:44.847Z,6.00
2019-03-10T13:24:13.465Z,6.10
2019-03-10T13:26:41.886Z,6.10
2019-03-10T13:29:10.345Z,6.20
2019-03-10T13:31:38.767Z,6.20
2019-03-10T13:34:07.236Z,6.20
2019-03-10T13:36:35.764Z,6.20
2019-03-10T13:39:06.570Z,6.30
2019-03-10T13:41:35.147Z,6.20
2019-03-10T13:44:03.614Z,6.20
2019-03-10T13:46:32.106Z,6.20
2019-03-10T13:49:00.780Z,6.20
2019-03-10T13:51:29.268Z,6.20
2019-03-10T13:53:57.811Z,6.20
2019-03-10T13:56:26.252Z,6.40
2019-03-10T13:58:54.770Z,6.50
2019-03-10T14:01:23.326Z,6.60
2019-03-10T14:03:51.719Z,6.70
2019-03-10T14:06:20.356Z,6.80
2019-03-10T14:08:48.758Z,6.80
2019-03-10T14:11:17.235Z,6.80
2019-03-10T14:13:45.741Z,6.80
2019-03-10T14:16:14.300Z,6.80
2019-03-10T14:18:42.855Z,6.80
2019-03-10T14:21:11.348Z,6.80
2019-03-10T14:23:39.885Z,6.80
2019-03-10T14:26:08.400Z,6.80
2019-03-10T14:28:36.824Z,6.70
2019-03-10T14:31:05.462Z,6.70
2019-03-10T14:33:33.897Z,6.80
2019-03-10T14:36:02.437Z,6.80
2019-03-10T14:38:31.090Z,6.90
2019-03-10T14:40:59.558Z,7.00
2019-03-10T14:43:28.075Z,7.10
2019-03-10T14:45:57.711Z,7.20
2019-03-10T14:48:26.141Z,7.30
2019-03-10T14:50:54.549Z,7.30
2019-03-10T14:53:23.006Z,7.30
2019-03-10T14:55:51.427Z,7.30
2019-03-10T14:58:19.960Z,7.30
2019-03-10T15:00:48.472Z,7.40
2019-03-10T15:03:16.978Z,7.40
2019-03-10T15:05:45.495Z,7.40
2019-03-10T15:08:14.018Z,7.40
2019-03-10T15:10:42.560Z,7.40
2019-03-10T15:13:11.403Z,7.40
2019-03-10T15:15:40.024Z,7.40
2019-03-10T15:18:08.656Z,7.30
2019-03-10T15:20:37.146Z,7.30
2019-03-10T15:23:05.579Z,7.40
2019-03-10T15:25:34.038Z,7.40
2019-03-10T15:28:02.514Z,7.40
2019-03-10T15:30:31.098Z,7.40
2019-03-10T15:32:59.614Z,7.40
2019-03-10T15:35:28.011Z,7.30
2019-03-10T15:37:56.431Z,7.30
2019-03-10T15:40:24.823Z,7.30
2019-03-10T15:42:53.234Z,7.20
2019-03-10T15:45:21.740Z,7.10
2019-03-10T15:47:50.267Z,7.10
2019-03-10T15:50:33.104Z,7.00
2019-03-10T15:53:01.500Z,6.90
2019-03-10T15:55:30.118Z,6.90
2019-03-10T15:57:58.578Z,6.80
2019-03-10T16:00:29.968Z,6.70
2019-03-10T16:02:58.410Z,6.70
2019-03-10T16:05:26.847Z,6.60
2019-03-10T16:07:55.377Z,6.60
2019-03-10T16:10:23.834Z,6.50
2019-03-10T16:12:52.339Z,6.50
2019-03-10T16:15:23.526Z,6.40
2019-03-10T16:17:51.989Z,6.40
2019-03-10T16:20:20.564Z,6.30
2019-03-10T16:22:49.090Z,6.30
2019-03-10T16:25:21.013Z,6.30
2019-03-10T16:27:50.012Z,6.30
2019-03-10T16:30:24.109Z,6.20
2019-03-10T16:32:52.560Z,6.20
2019-03-10T16:35:22.338Z,6.20
2019-03-10T16:37:51.082Z,6.10
2019-03-10T16:40:22.666Z,6.00
2019-03-10T16:42:51.172Z,6.00
2019-03-10T16:45:27.387Z,5.90
2019-03-10T16:47:57.634Z,5.80
2019-03-10T16:50:27.436Z,5.80
2019-03-10T16:52:55.921Z,5.70
2019-03-10T16:55:24.380Z,5.60
2019-03-10T16:57:52.804Z,5.60
2019-03-10T17:00:24.108Z,5.60
2019-03-10T17:02:52.584Z,5.60
2019-03-10T17:05:21.894Z,5.60
2019-03-10T17:07:50.485Z,5.60
2019-03-10T17:10:26.030Z,5.70
2019-03-10T17:12:54.460Z,5.70
2019-03-10T17:15:23.796Z,5.70
2019-03-10T17:17:52.185Z,5.70
2019-03-10T17:20:40.112Z,5.60
2019-03-10T17:23:08.550Z,5.70
2019-03-10T17:25:37.178Z,5.60
2019-03-10T17:28:05.640Z,5.50
2019-03-10T17:30:34.097Z,5.50
2019-03-10T17:33:02.612Z,5.50
2019-03-10T17:35:31.143Z,5.50
2019-03-10T17:37:59.668Z,5.50
2019-03-10T17:40:28.151Z,5.50
2019-03-10T17:42:56.615Z,5.40
2019-03-10T17:45:26.250Z,5.40
2019-03-10T17:47:54.731Z,5.30
2019-03-10T17:50:23.270Z,5.30
2019-03-10T17:52:51.734Z,5.30
2019-03-10T17:55:21.485Z,5.20
2019-03-10T17:57:49.943Z,5.20
2019-03-10T18:00:23.755Z,5.20
2019-03-10T18:02:52.234Z,5.30
2019-03-10T18:05:20.708Z,5.30
2019-03-10T18:07:49.274Z,5.20
2019-03-10T18:10:18.485Z,5.20
2019-03-10T18:12:47.139Z,5.30
2019-03-10T18:15:18.738Z,5.30
2019-03-10T18:17:47.232Z,5.30
2019-03-10T18:20:17.034Z,5.30
2019-03-10T18:22:45.822Z,5.30
2019-03-10T18:25:14.720Z,5.30
2019-03-10T18:27:43.198Z,5.30
2019-03-10T18:30:14.727Z,5.20
2019-03-10T18:32:43.149Z,5.20
2019-03-10T18:35:11.683Z,5.20
2019-03-10T18:37:40.170Z,5.20
2019-03-10T18:40:14.450Z,5.20
2019-03-10T18:42:43.117Z,5.10
2019-03-10T18:45:14.290Z,5.00
2019-03-10T18:47:42.754Z,4.90
2019-03-10T18:50:13.886Z,4.90
2019-03-10T18:52:42.428Z,4.80
2019-03-10T18:55:12.677Z,4.80
2019-03-10T18:57:41.278Z,4.80
2019-03-10T19:00:24.120Z,4.70
2019-03-10T19:02:52.630Z,4.60
2019-03-10T19:05:21.097Z,4.50
2019-03-10T19:07:49.565Z,4.40
2019-03-10T19:10:17.991Z,4.20
2019-03-10T19:12:46.461Z,4.20
2019-03-10T19:15:22.186Z,4.20
2019-03-10T19:17:50.644Z,4.10
2019-03-10T19:20:19.114Z,4.10
2019-03-10T19:22:47.645Z,3.90
2019-03-10T19:25:16.844Z,3.80
2019-03-10T19:27:45.334Z,3.80
2019-03-10T19:30:21.745Z,3.80
2019-03-10T19:32:50.177Z,3.70
2019-03-10T19:35:18.658Z,3.70
2019-03-10T19:37:47.189Z,3.70
2019-03-10T19:40:17.737Z,3.60
2019-03-10T19:42:46.233Z,3.60
2019-03-10T19:45:17.736Z,3.60
2019-03-10T19:47:46.198Z,3.60
2019-03-10T19:50:27.210Z,3.70
2019-03-10T19:52:55.434Z,3.70
2019-03-10T19:55:24.120Z,3.60
2019-03-10T19:57:52.598Z,3.60
2019-03-10T20:00:21.815Z,3.50
2019-03-10T20:02:50.262Z,3.40
2019-03-10T20:05:18.765Z,3.40
2019-03-10T20:07:47.395Z,3.30
2019-03-10T20:10:19.525Z,3.30
2019-03-10T20:12:48.022Z,3.20
2019-03-10T20:15:25.427Z,3.10
2019-03-10T20:17:53.879Z,3.00
2019-03-10T20:20:27.473Z,3.00
2019-03-10T20:22:55.980Z,2.90
2019-03-10T20:25:24.542Z,2.80
2019-03-10T20:27:53.019Z,2.70
2019-03-10T20:30:23.684Z,2.70
2019-03-10T20:32:52.209Z,2.60
2019-03-10T20:35:20.649Z,2.60
2019-03-10T20:37:49.188Z,2.70
2019-03-10T20:40:22.645Z,2.70
2019-03-10T20:42:51.138Z,2.70
2019-03-10T20:45:20.587Z,2.80
2019-03-10T20:47:49.747Z,2.80
2019-03-10T20:50:20.483Z,2.80
2019-03-10T20:52:48.960Z,2.80
2019-03-10T20:55:17.461Z,2.80
2019-03-10T20:57:46.006Z,2.80
2019-03-10T21:00:28.167Z,2.80
2019-03-10T21:02:56.720Z,2.80
2019-03-10T21:05:25.298Z,2.80
2019-03-10T21:07:53.728Z,2.80
2019-03-10T21:10:26.637Z,2.80
2019-03-10T21:12:55.119Z,2.80
2019-03-10T21:15:26.227Z,2.80
2019-03-10T21:17:54.510Z,2.80
2019-03-10T21:20:24.324Z,2.80
2019-03-10T21:22:52.797Z,2.80
2019-03-10T21:25:31.375Z,2.90
2019-03-10T21:27:59.771Z,2.80
2019-03-10T21:30:32.018Z,2.70
2019-03-10T21:33:00.487Z,2.60
2019-03-10T21:35:28.965Z,2.60
2019-03-10T21:37:57.591Z,2.60
2019-03-10T21:40:28.288Z,2.60
2019-03-10T21:42:57.102Z,2.60
2019-03-10T21:45:25.617Z,2.60
2019-03-10T21:47:54.044Z,2.60
2019-03-10T21:50:22.516Z,2.60
2019-03-10T21:52:51.166Z,2.50
2019-03-10T21:55:19.599Z,2.50
2019-03-10T21:57:58.974Z,2.50
2019-03-10T22:00:27.455Z,2.50
2019-03-10T22:02:55.922Z,2.50
2019-03-10T22:05:24.581Z,2.50
2019-03-10T22:07:53.181Z,2.50
2019-03-10T22:10:27.274Z,2.50
2019-03-10T22:12:52.121Z,2.60
2019-03-10T22:15:21.326Z,2.60
2019-03-10T22:17:49.866Z,2.60
2019-03-10T22:20:19.189Z,2.60
2019-03-10T22:22:50.024Z,2.60
2019-03-10T22:25:17.967Z,2.60
2019-03-10T22:27:46.602Z,2.60
2019-03-10T22:30:20.291Z,2.60
2019-03-10T22:32:48.759Z,2.60
2019-03-10T22:35:17.236Z,2.60
2019-03-10T22:37:45.705Z,2.50
2019-03-10T22:40:15.318Z,2.50
2019-03-10T22:42:43.737Z,2.50
2019-03-10T22:45:16.074Z,2.40
2019-03-10T22:47:44.545Z,2.40
2019-03-10T22:50:14.994Z,2.50
2019-03-10T22:52:43.651Z,2.50
2019-03-10T22:55:13.081Z,2.50
2019-03-10T22:57:41.580Z,2.60
2019-03-10T23:00:21.067Z,2.60
2019-03-10T23:02:49.491Z,2.70
2019-03-10T23:05:18.038Z,2.60
2019-03-10T23:07:46.439Z,2.60
2019-03-10T23:10:15.507Z,2.60
2019-03-10T23:12:43.963Z,2.60
2019-03-10T23:15:13.369Z,2.70
2019-03-10T23:17:41.861Z,2.70
2019-03-10T23:20:13.587Z,2.70
2019-03-10T23:22:42.206Z,2.70
2019-03-10T23:25:10.720Z,2.60
2019-03-10T23:27:39.295Z,2.60
2019-03-10T23:30:16.077Z,2.60
2019-03-10T23:32:44.527Z,2.60
2019-03-10T23:35:12.915Z,2.60
2019-03-10T23:37:41.611Z,2.60
2019-03-10T23:40:15.383Z,2.60
2019-03-10T23:42:43.792Z,2.50
2019-03-10T23:45:14.208Z,2.50
2019-03-10T23:47:42.614Z,2.50
2019-03-10T23:50:12.522Z,2.50
2019-03-10T23:52:41.037Z,2.50
2019-03-10T23:55:10.986Z,2.50
2019-03-10T23:57:39.412Z,2.40
